createdAt,value
2019-01-04T00:00:21.736Z,56.80
2019-01-04T00:02:52.906Z,56.70
2019-01-04T00:05:22.608Z,56.80
2019-01-04T00:07:52.270Z,56.70
2019-01-04T00:10:21.830Z,56.90
2019-01-04T00:12:51.506Z,56.80
2019-01-04T00:15:21.070Z,56.80
2019-01-04T00:17:51.652Z,56.80
2019-01-04T00:20:21.225Z,56.90
2019-01-04T00:22:50.866Z,56.70
2019-01-04T00:25:20.434Z,56.80
2019-01-04T00:27:50.035Z,56.90
2019-01-04T00:30:19.815Z,56.70
2019-01-04T00:32:49.457Z,57.00
2019-01-04T00:35:19.048Z,57.00
2019-01-04T00:37:48.650Z,57.00
2019-01-04T00:40:18.307Z,57.40
2019-01-04T00:42:47.847Z,57.40
2019-01-04T00:45:17.577Z,57.40
2019-01-04T00:47:47.169Z,57.60
2019-01-04T00:50:16.775Z,57.60
2019-01-04T00:52:46.356Z,57.70
2019-01-04T00:55:18.884Z,57.70
2019-01-04T00:58:03.348Z,57.90
2019-01-04T01:00:45.000Z,57.70
2019-01-04T01:03:52.482Z,58.00
2019-01-04T01:06:47.851Z,57.90
2019-01-04T01:09:36.893Z,58.20
2019-01-04T01:12:43.052Z,58.10
2019-01-04T01:15:48.911Z,58.50
2019-01-04T01:18:47.099Z,58.30
2019-01-04T01:21:25.535Z,58.60
2019-01-04T01:24:03.921Z,59.40
2019-01-04T01:26:42.008Z,59.40
2019-01-04T01:29:32.388Z,59.30
2019-01-04T01:32:37.952Z,59.30
2019-01-04T01:35:16.391Z,59.30
2019-01-04T01:38:06.691Z,59.80
2019-01-04T01:40:55.788Z,59.40
2019-01-04T01:43:53.876Z,59.60
2019-01-04T01:46:26.418Z,61.00
2019-01-04T01:49:14.157Z,60.90
2019-01-04T01:51:52.705Z,60.80
2019-01-04T01:54:22.280Z,61.20
2019-01-04T01:56:51.909Z,61.50
2019-01-04T01:59:21.507Z,61.10
2019-01-04T02:01:51.078Z,62.40
2019-01-04T02:04:20.764Z,62.30
2019-01-04T02:06:51.420Z,61.50
2019-01-04T02:09:21.075Z,61.50
2019-01-04T02:11:50.749Z,62.00
2019-01-04T02:14:20.320Z,63.00
2019-01-04T02:16:49.950Z,63.40
2019-01-04T02:19:19.554Z,62.90
2019-01-04T02:21:49.200Z,62.50
2019-01-04T02:24:18.808Z,63.80
2019-01-04T02:26:48.400Z,62.70
2019-01-04T02:29:18.000Z,62.90
2019-01-04T02:31:47.598Z,63.70
2019-01-04T02:34:17.184Z,63.90
2019-01-04T02:36:46.693Z,64.80
2019-01-04T02:39:16.312Z,64.30
2019-01-04T02:41:45.866Z,65.00
2019-01-04T02:44:15.438Z,64.70
2019-01-04T02:46:45.328Z,65.10
2019-01-04T02:49:14.905Z,65.40
2019-01-04T02:51:44.577Z,67.30
2019-01-04T02:54:14.154Z,66.30
2019-01-04T02:56:43.758Z,66.70
2019-01-04T02:59:13.264Z,66.70
2019-01-04T03:01:42.924Z,68.20
2019-01-04T03:04:12.500Z,67.60
2019-01-04T03:06:42.074Z,66.70
2019-01-04T03:09:11.682Z,68.70
2019-01-04T03:11:41.274Z,68.70
2019-01-04T03:14:10.936Z,70.40
2019-01-04T03:16:40.518Z,66.80
2019-01-04T03:19:10.090Z,70.10
2019-01-04T03:21:39.699Z,69.10
2019-01-04T03:24:09.274Z,68.60
2019-01-04T03:26:38.873Z,70.50
2019-01-04T03:29:08.483Z,68.60
2019-01-04T03:31:38.159Z,68.70
2019-01-04T03:34:07.710Z,68.80
2019-01-04T03:36:37.250Z,68.90
2019-01-04T03:39:06.939Z,69.60
2019-01-04T03:41:36.644Z,71.70
2019-01-04T03:44:07.326Z,71.40
2019-01-04T03:46:36.902Z,71.50
2019-01-04T03:49:06.486Z,70.00
2019-01-04T03:51:36.070Z,69.40
2019-01-04T03:54:05.638Z,69.80
2019-01-04T03:56:35.243Z,68.80
2019-01-04T03:59:04.912Z,69.20
2019-01-04T04:01:34.663Z,70.30
2019-01-04T04:04:04.196Z,68.80
2019-01-04T04:06:34.065Z,69.40
2019-01-04T04:09:04.482Z,69.80
2019-01-04T04:11:34.069Z,68.90
2019-01-04T04:14:03.718Z,68.90
2019-01-04T04:16:33.296Z,68.90
2019-01-04T04:19:02.870Z,71.50
2019-01-04T04:21:32.474Z,71.90
2019-01-04T04:24:02.048Z,72.70
2019-01-04T04:26:31.624Z,70.90
2019-01-04T04:29:01.161Z,71.40
2019-01-04T04:31:31.186Z,70.90
2019-01-04T04:34:00.761Z,71.30
2019-01-04T04:36:30.414Z,70.50
2019-01-04T04:38:59.918Z,69.80
2019-01-04T04:41:29.522Z,69.90
2019-01-04T04:43:59.104Z,70.50
2019-01-04T04:46:28.766Z,70.30
2019-01-04T04:48:58.370Z,69.60
2019-01-04T04:51:27.934Z,70.50
2019-01-04T04:53:57.603Z,70.80
2019-01-04T04:56:27.188Z,70.00
2019-01-04T04:58:56.750Z,70.80
2019-01-04T05:01:26.355Z,71.10
2019-01-04T05:03:56.002Z,70.80
2019-01-04T05:06:25.651Z,70.70
2019-01-04T05:08:55.182Z,70.00
2019-01-04T05:11:24.770Z,71.20
2019-01-04T05:13:54.359Z,70.60
2019-01-04T05:16:23.922Z,70.70
2019-01-04T05:18:53.513Z,70.60
2019-01-04T05:21:23.104Z,71.50
2019-01-04T05:23:52.680Z,70.00
2019-01-04T05:26:22.246Z,70.60
2019-01-04T05:28:51.841Z,71.30
2019-01-04T05:31:21.362Z,69.90
2019-01-04T05:33:50.944Z,69.30
2019-01-04T05:36:20.536Z,70.60
2019-01-04T05:38:50.103Z,69.60
2019-01-04T05:41:19.712Z,69.30
2019-01-04T05:43:49.287Z,69.30
2019-01-04T05:46:18.878Z,69.30
2019-01-04T05:48:48.399Z,69.30
2019-01-04T05:51:17.994Z,69.30
2019-01-04T05:53:47.519Z,69.40
2019-01-04T05:56:17.094Z,69.40
2019-01-04T05:58:46.610Z,69.40
2019-01-04T06:01:16.209Z,69.40
2019-01-04T06:03:45.759Z,69.40
2019-01-04T06:06:15.261Z,69.40
2019-01-04T06:08:44.856Z,69.40
2019-01-04T06:11:14.445Z,69.20
2019-01-04T06:13:44.028Z,69.60
2019-01-04T06:16:13.686Z,69.50
2019-01-04T06:18:43.268Z,69.50
2019-01-04T06:21:12.864Z,69.00
2019-01-04T06:23:42.450Z,70.20
2019-01-04T06:26:12.029Z,71.10
2019-01-04T06:28:41.602Z,70.00
2019-01-04T06:31:11.179Z,70.90
2019-01-04T06:33:40.831Z,69.60
2019-01-04T06:36:10.408Z,71.00
2019-01-04T06:38:40.049Z,73.10
2019-01-04T06:41:09.659Z,71.60
2019-01-04T06:43:39.248Z,72.20
2019-01-04T06:46:08.980Z,71.70
2019-01-04T06:48:38.542Z,71.10
2019-01-04T06:51:08.052Z,71.10
2019-01-04T06:53:37.688Z,71.00
2019-01-04T06:56:07.372Z,71.30
2019-01-04T06:58:36.979Z,71.10
2019-01-04T07:01:06.550Z,70.50
2019-01-04T07:03:36.078Z,70.20
2019-01-04T07:06:05.668Z,70.70
2019-01-04T07:08:35.274Z,70.50
2019-01-04T07:11:04.786Z,70.30
2019-01-04T07:13:34.373Z,69.90
2019-01-04T07:16:04.044Z,70.00
2019-01-04T07:18:33.628Z,70.20
2019-01-04T07:21:03.200Z,70.50
2019-01-04T07:23:33.863Z,70.50
2019-01-04T07:26:03.450Z,71.00
2019-01-04T07:28:33.092Z,70.20
2019-01-04T07:31:03.022Z,70.70
2019-01-04T07:33:32.614Z,71.50
2019-01-04T07:36:02.110Z,71.00
2019-01-04T07:38:31.754Z,71.80
2019-01-04T07:41:02.283Z,72.10
2019-01-04T07:43:32.077Z,72.90
2019-01-04T07:46:01.580Z,72.70
2019-01-04T07:48:31.172Z,72.90
2019-01-04T07:51:00.768Z,73.30
2019-01-04T07:53:30.405Z,73.60
2019-01-04T07:56:00.624Z,75.30
2019-01-04T07:58:30.423Z,74.70
2019-01-04T08:01:00.037Z,78.10
2019-01-04T08:03:29.631Z,75.90
2019-01-04T08:05:59.230Z,78.00
2019-01-04T08:08:28.830Z,79.40
2019-01-04T08:10:58.414Z,78.90
2019-01-04T08:13:28.090Z,80.10
2019-01-04T08:15:57.661Z,77.60
2019-01-04T08:18:27.236Z,77.90
2019-01-04T08:20:56.892Z,78.60
2019-01-04T08:23:26.482Z,79.50
2019-01-04T08:25:56.090Z,81.20
2019-01-04T08:28:25.714Z,81.20
2019-01-04T08:30:55.303Z,81.30
2019-01-04T08:33:24.894Z,82.00
2019-01-04T08:35:54.544Z,80.10
2019-01-04T08:38:24.142Z,83.40
2019-01-04T08:40:53.751Z,80.90
2019-01-04T08:43:23.341Z,82.50
2019-01-04T08:45:52.936Z,83.70
2019-01-04T08:48:22.574Z,83.20
2019-01-04T08:50:52.168Z,85.70
2019-01-04T08:53:24.702Z,84.00
2019-01-04T08:55:54.284Z,82.40
2019-01-04T08:58:23.925Z,82.90
2019-01-04T09:00:53.637Z,81.90
2019-01-04T09:03:23.292Z,82.30
2019-01-04T09:05:52.878Z,81.50
2019-01-04T09:08:22.403Z,81.90
2019-01-04T09:10:52.070Z,85.80
2019-01-04T09:13:21.505Z,82.60
2019-01-04T09:15:51.012Z,82.80
2019-01-04T09:18:20.614Z,85.20
2019-01-04T09:20:50.174Z,85.90
2019-01-04T09:23:19.746Z,87.90
2019-01-04T09:25:49.397Z,84.40
2019-01-04T09:28:18.997Z,83.70
2019-01-04T09:30:48.651Z,85.30
2019-01-04T09:33:18.418Z,83.60
2019-01-04T09:35:47.948Z,83.20
2019-01-04T09:38:17.848Z,83.80
2019-01-04T09:40:47.432Z,83.00
2019-01-04T09:43:17.013Z,84.50
2019-01-04T09:45:46.683Z,83.40
2019-01-04T09:48:16.264Z,84.30
2019-01-04T09:50:45.865Z,86.20
2019-01-04T09:53:15.503Z,85.30
2019-01-04T09:55:45.091Z,85.90
2019-01-04T09:58:14.610Z,87.90
2019-01-04T10:00:44.188Z,87.70
2019-01-04T10:03:13.772Z,88.00
2019-01-04T10:05:43.342Z,88.10
2019-01-04T10:08:13.113Z,86.50
2019-01-04T10:10:42.700Z,85.20
2019-01-04T10:13:12.296Z,88.10
2019-01-04T10:15:42.200Z,88.70
2019-01-04T10:18:11.825Z,86.30
2019-01-04T10:20:41.372Z,87.70
2019-01-04T10:23:11.036Z,87.70
2019-01-04T10:25:40.561Z,86.20
2019-01-04T10:28:10.457Z,85.60
2019-01-04T10:30:40.022Z,88.20
2019-01-04T10:33:09.617Z,87.50
2019-01-04T10:35:39.203Z,84.40
2019-01-04T10:38:08.768Z,84.10
2019-01-04T10:40:38.371Z,84.30
2019-01-04T10:43:08.243Z,84.20
2019-01-04T10:45:37.834Z,84.40
2019-01-04T10:48:07.463Z,83.00
2019-01-04T10:50:37.070Z,83.80
2019-01-04T10:53:06.660Z,83.30
2019-01-04T10:55:37.259Z,84.50
2019-01-04T10:58:06.848Z,82.70
2019-01-04T11:00:36.493Z,83.70
2019-01-04T11:03:06.459Z,82.70
2019-01-04T11:05:36.045Z,82.40
2019-01-04T11:08:05.710Z,83.10
2019-01-04T11:10:35.372Z,82.20
2019-01-04T11:13:05.038Z,83.10
2019-01-04T11:15:34.670Z,80.20
2019-01-04T11:18:09.801Z,80.10
2019-01-04T11:20:37.917Z,80.10
2019-01-04T11:23:13.416Z,80.10
2019-01-04T11:26:10.166Z,80.20
2019-01-04T11:28:48.335Z,80.20
2019-01-04T11:31:35.686Z,80.30
2019-01-04T11:34:22.615Z,79.80
2019-01-04T11:37:06.942Z,79.00
2019-01-04T11:39:57.462Z,78.50
2019-01-04T11:42:29.980Z,78.10
2019-01-04T11:45:05.298Z,77.30
2019-01-04T11:47:43.524Z,77.50
2019-01-04T11:50:16.056Z,77.70
2019-01-04T11:52:47.050Z,78.10
2019-01-04T11:55:16.616Z,77.90
2019-01-04T11:57:46.209Z,78.60
2019-01-04T12:00:15.864Z,78.70
2019-01-04T12:02:45.519Z,80.20
2019-01-04T12:05:16.583Z,80.20
2019-01-04T12:07:46.177Z,80.20
2019-01-04T12:10:15.746Z,79.80
2019-01-04T12:12:45.409Z,79.50
2019-01-04T12:15:15.065Z,80.20
2019-01-04T12:17:44.622Z,81.40
2019-01-04T12:20:14.142Z,80.30
2019-01-04T12:22:43.719Z,80.60
2019-01-04T12:25:13.319Z,81.10
2019-01-04T12:27:42.930Z,81.20
2019-01-04T12:30:12.512Z,80.70
2019-01-04T12:32:42.040Z,81.20
2019-01-04T12:35:11.614Z,81.20
2019-01-04T12:37:41.200Z,81.80
2019-01-04T12:40:10.800Z,83.00
2019-01-04T12:42:41.514Z,81.40
2019-01-04T12:45:11.543Z,81.90
2019-01-04T12:47:41.116Z,82.90
2019-01-04T12:50:10.777Z,82.30
2019-01-04T12:52:40.374Z,83.20
2019-01-04T12:55:11.024Z,84.80
2019-01-04T12:57:40.662Z,83.30
2019-01-04T13:00:12.525Z,83.70
2019-01-04T13:02:42.317Z,82.70
2019-01-04T13:05:13.017Z,85.00
2019-01-04T13:07:42.668Z,83.50
2019-01-04T13:10:12.337Z,84.10
2019-01-04T13:12:41.913Z,83.90
2019-01-04T13:15:11.490Z,83.90
2019-01-04T13:17:41.148Z,82.00
2019-01-04T13:20:10.760Z,82.00
2019-01-04T13:22:40.353Z,81.90
2019-01-04T13:25:10.012Z,82.30
2019-01-04T13:27:39.634Z,82.00
2019-01-04T13:30:09.558Z,82.70
2019-01-04T13:32:39.139Z,82.50
2019-01-04T13:35:08.965Z,82.00
2019-01-04T13:37:38.915Z,81.30
2019-01-04T13:40:08.542Z,81.20
2019-01-04T13:42:38.318Z,80.90
2019-01-04T13:45:08.227Z,82.10
2019-01-04T13:47:37.818Z,82.70
2019-01-04T13:50:08.211Z,81.70
2019-01-04T13:52:37.842Z,81.90
2019-01-04T13:55:08.594Z,81.40
2019-01-04T13:57:38.297Z,81.70
2019-01-04T14:00:10.665Z,81.90
2019-01-04T14:02:40.324Z,82.40
2019-01-04T14:05:09.978Z,81.80
2019-01-04T14:07:39.575Z,82.20
2019-01-04T14:10:10.133Z,82.10
2019-01-04T14:12:39.792Z,81.30
2019-01-04T14:15:09.570Z,81.30
2019-01-04T14:17:39.259Z,81.00
2019-01-04T14:20:09.032Z,81.00
2019-01-04T14:22:38.696Z,81.10
2019-01-04T14:25:08.576Z,80.60
2019-01-04T14:27:39.143Z,80.60
2019-01-04T14:30:11.009Z,80.60
2019-01-04T14:32:40.663Z,80.00
2019-01-04T14:35:11.418Z,79.90
2019-01-04T14:37:41.028Z,80.00
2019-01-04T14:40:11.419Z,79.90
2019-01-04T14:42:41.073Z,79.30
2019-01-04T14:45:10.791Z,79.50
2019-01-04T14:47:40.462Z,79.20
2019-01-04T14:50:11.474Z,79.20
2019-01-04T14:52:41.502Z,79.00
2019-01-04T14:55:11.247Z,78.80
2019-01-04T14:57:40.834Z,78.70
2019-01-04T15:00:11.854Z,78.80
2019-01-04T15:02:41.444Z,78.60
2019-01-04T15:05:11.046Z,78.30
2019-01-04T15:07:40.636Z,78.30
2019-01-04T15:10:10.236Z,78.00
2019-01-04T15:12:39.893Z,78.00
2019-01-04T15:15:09.494Z,77.60
2019-01-04T15:17:39.144Z,77.60
2019-01-04T15:20:10.254Z,77.50
2019-01-04T15:22:40.046Z,77.00
2019-01-04T15:25:09.694Z,76.90
2019-01-04T15:27:39.504Z,76.90
2019-01-04T15:30:10.704Z,77.40
2019-01-04T15:32:40.364Z,76.60
2019-01-04T15:35:10.032Z,76.40
2019-01-04T15:37:39.687Z,76.50
2019-01-04T15:40:09.345Z,76.30
2019-01-04T15:42:39.008Z,76.20
2019-01-04T15:45:09.230Z,76.20
2019-01-04T15:47:38.859Z,76.00
2019-01-04T15:50:09.257Z,75.80
2019-01-04T15:52:38.866Z,75.50
2019-01-04T15:55:08.525Z,75.60
2019-01-04T15:57:38.090Z,75.30
2019-01-04T16:00:10.650Z,75.30
2019-01-04T16:02:40.210Z,75.50
2019-01-04T16:05:10.325Z,75.30
2019-01-04T16:07:39.984Z,75.30
2019-01-04T16:10:10.088Z,75.10
2019-01-04T16:12:40.015Z,74.90
2019-01-04T16:15:10.654Z,74.80
2019-01-04T16:17:40.254Z,74.80
2019-01-04T16:20:11.427Z,74.60
2019-01-04T16:22:41.192Z,74.40
2019-01-04T16:25:10.784Z,74.20
2019-01-04T16:27:40.436Z,74.20
2019-01-04T16:30:11.517Z,73.50
2019-01-04T16:32:41.173Z,73.80
2019-01-04T16:35:10.748Z,73.50
2019-01-04T16:37:40.338Z,73.40
2019-01-04T16:40:09.983Z,73.60
2019-01-04T16:42:39.655Z,73.40
2019-01-04T16:45:09.403Z,73.00
2019-01-04T16:47:39.967Z,73.20
2019-01-04T16:50:09.684Z,73.10
2019-01-04T16:52:39.278Z,73.10
2019-01-04T16:55:09.447Z,72.80
2019-01-04T16:57:39.092Z,72.90
2019-01-04T17:00:10.795Z,72.50
2019-01-04T17:02:40.396Z,72.80
2019-01-04T17:05:10.070Z,72.70
2019-01-04T17:07:39.773Z,72.40
2019-01-04T17:10:09.417Z,72.60
2019-01-04T17:12:39.016Z,72.70
2019-01-04T17:15:08.632Z,72.60
2019-01-04T17:17:38.211Z,72.40
2019-01-04T17:20:07.959Z,72.50
2019-01-04T17:22:37.582Z,72.50
2019-01-04T17:25:08.159Z,72.30
2019-01-04T17:27:37.752Z,72.30
2019-01-04T17:30:09.328Z,71.90
2019-01-04T17:32:38.939Z,72.10
2019-01-04T17:35:08.611Z,72.00
2019-01-04T17:37:38.277Z,72.00
2019-01-04T17:40:09.160Z,72.10
2019-01-04T17:42:38.824Z,72.30
2019-01-04T17:45:09.121Z,72.40
2019-01-04T17:47:38.808Z,72.40
2019-01-04T17:50:09.470Z,72.40
2019-01-04T17:52:39.094Z,72.30
2019-01-04T17:55:08.819Z,72.20
2019-01-04T17:57:38.518Z,72.30
2019-01-04T18:00:09.959Z,72.40
2019-01-04T18:02:40.739Z,72.60
2019-01-04T18:05:10.318Z,72.50
2019-01-04T18:07:39.949Z,72.50
2019-01-04T18:10:09.980Z,72.50
2019-01-04T18:12:39.557Z,72.50
2019-01-04T18:15:09.202Z,72.50
2019-01-04T18:17:38.796Z,72.70
2019-01-04T18:20:10.960Z,72.70
2019-01-04T18:22:41.086Z,73.00
2019-01-04T18:25:10.722Z,73.00
2019-01-04T18:27:41.456Z,73.00
2019-01-04T18:30:12.168Z,73.10
2019-01-04T18:32:41.900Z,73.00
2019-01-04T18:35:11.562Z,73.00
2019-01-04T18:37:41.165Z,73.00
2019-01-04T18:40:10.765Z,73.00
2019-01-04T18:42:40.430Z,72.90
2019-01-04T18:45:10.160Z,73.00
2019-01-04T18:47:39.754Z,73.10
2019-01-04T18:50:12.232Z,73.10
2019-01-04T18:52:41.989Z,73.20
2019-01-04T18:55:11.623Z,73.10
2019-01-04T18:57:41.298Z,73.20
2019-01-04T19:00:11.929Z,73.40
2019-01-04T19:02:42.687Z,73.30
2019-01-04T19:05:12.348Z,74.20
2019-01-04T19:07:41.988Z,73.40
2019-01-04T19:10:11.667Z,73.40
2019-01-04T19:12:41.321Z,73.40
2019-01-04T19:15:11.422Z,73.50
2019-01-04T19:17:41.083Z,73.50
2019-01-04T19:20:10.728Z,73.60
2019-01-04T19:22:40.441Z,73.70
2019-01-04T19:25:10.268Z,73.70
2019-01-04T19:27:39.870Z,73.60
2019-01-04T19:30:09.814Z,73.60
2019-01-04T19:32:39.487Z,73.40
2019-01-04T19:35:09.225Z,73.60
2019-01-04T19:37:38.868Z,73.50
2019-01-04T19:40:08.559Z,73.50
2019-01-04T19:42:40.735Z,73.70
2019-01-04T19:45:10.355Z,73.60
2019-01-04T19:47:40.129Z,74.40
2019-01-04T19:50:18.090Z,73.90
2019-01-04T19:52:47.936Z,74.10
2019-01-04T19:55:17.542Z,74.20
2019-01-04T19:57:47.256Z,74.40
2019-01-04T20:00:16.997Z,74.40
2019-01-04T20:02:46.759Z,74.80
2019-01-04T20:05:22.067Z,74.70
2019-01-04T20:08:32.675Z,74.60
2019-01-04T20:11:16.118Z,74.80
2019-01-04T20:14:27.626Z,74.80
2019-01-04T20:17:04.601Z,75.00
2019-01-04T20:19:43.162Z,75.10
2019-01-04T20:22:31.955Z,75.30
2019-01-04T20:25:05.941Z,75.30
2019-01-04T20:27:53.260Z,75.40
2019-01-04T20:30:36.255Z,75.90
2019-01-04T20:33:23.938Z,75.70
2019-01-04T20:35:57.990Z,75.60
2019-01-04T20:38:38.679Z,75.10
2019-01-04T20:41:26.532Z,75.10
2019-01-04T20:44:14.083Z,75.20
2019-01-04T20:47:03.539Z,75.20
2019-01-04T20:49:40.712Z,75.30
2019-01-04T20:52:28.057Z,76.00
2019-01-04T20:55:08.109Z,75.30
2019-01-04T20:57:42.609Z,75.50
2019-01-04T21:00:31.964Z,75.30
2019-01-04T21:03:15.498Z,75.20
2019-01-04T21:05:49.554Z,75.30
2019-01-04T21:08:23.511Z,75.30
2019-01-04T21:11:03.901Z,75.60
2019-01-04T21:13:36.247Z,75.30
2019-01-04T21:16:19.502Z,75.30
2019-01-04T21:18:56.869Z,75.40
2019-01-04T21:21:44.568Z,75.40
2019-01-04T21:24:24.959Z,75.40
2019-01-04T21:27:12.921Z,75.40
2019-01-04T21:30:00.631Z,75.30
2019-01-04T21:32:48.439Z,75.40
2019-01-04T21:35:36.168Z,75.40
2019-01-04T21:38:22.829Z,75.50
2019-01-04T21:40:54.952Z,75.30
2019-01-04T21:43:32.393Z,75.30
2019-01-04T21:46:09.316Z,75.40
2019-01-04T21:48:40.591Z,75.30
2019-01-04T21:51:29.834Z,75.10
2019-01-04T21:54:07.243Z,75.30
2019-01-04T21:56:38.583Z,75.70
2019-01-04T21:59:26.271Z,75.50
2019-01-04T22:01:57.597Z,75.50
2019-01-04T22:04:45.053Z,75.40
2019-01-04T22:07:28.310Z,75.50
2019-01-04T22:10:17.309Z,75.70
2019-01-04T22:12:48.534Z,75.60
2019-01-04T22:15:22.482Z,75.80
2019-01-04T22:18:02.673Z,75.80
2019-01-04T22:20:49.210Z,76.00
2019-01-04T22:23:23.365Z,75.70
2019-01-04T22:25:57.320Z,75.80
2019-01-04T22:28:28.571Z,75.80
2019-01-04T22:31:16.528Z,75.80
2019-01-04T22:34:04.011Z,75.90
2019-01-04T22:36:38.241Z,76.10
2019-01-04T22:39:27.704Z,75.90
2019-01-04T22:42:08.039Z,76.10
2019-01-04T22:44:55.559Z,76.40
2019-01-04T22:47:29.535Z,76.50
2019-01-04T22:50:09.714Z,76.20
2019-01-04T22:52:43.661Z,76.20
2019-01-04T22:55:14.878Z,76.50
2019-01-04T22:57:48.833Z,76.10
2019-01-04T23:00:31.841Z,76.40
2019-01-04T23:03:19.615Z,76.10
2019-01-04T23:05:57.134Z,76.20
2019-01-04T23:08:44.802Z,76.40
2019-01-04T23:11:16.000Z,76.30
2019-01-04T23:13:47.242Z,76.30
2019-01-04T23:16:18.479Z,76.50
2019-01-04T23:18:49.699Z,76.50
2019-01-04T23:21:59.771Z,76.60
2019-01-04T23:24:47.408Z,76.30
2019-01-04T23:27:30.182Z,76.50
2019-01-04T23:30:04.212Z,76.40
2019-01-04T23:32:35.446Z,76.40
2019-01-04T23:35:09.739Z,76.40
2019-01-04T23:37:57.312Z,76.50
2019-01-04T23:40:28.554Z,76.50
2019-01-04T23:43:02.507Z,76.50
2019-01-04T23:45:50.003Z,76.50
2019-01-04T23:48:30.063Z,76.50
2019-01-04T23:51:07.066Z,76.50
2019-01-04T23:53:44.100Z,77.00
2019-01-04T23:56:33.714Z,76.30
2019-01-04T23:59:14.005Z,76.60
